createdAt,value
2017-06-28T00:00:43.092Z,64.20
2017-06-28T00:03:25.745Z,63.80
2017-06-28T00:06:08.153Z,64.00
2017-06-28T00:08:51.529Z,63.90
2017-06-28T00:11:27.759Z,64.00
2017-06-28T00:14:07.644Z,64.40
2017-06-28T00:16:49.982Z,64.50
2017-06-28T00:19:18.279Z,64.10
2017-06-28T00:21:46.221Z,64.10
2017-06-28T00:24:25.823Z,64.30
2017-06-28T00:27:05.935Z,64.30
2017-06-28T00:29:44.183Z,64.30
2017-06-28T00:32:14.347Z,64.20
2017-06-28T00:34:50.147Z,63.80
2017-06-28T00:37:17.118Z,63.80
2017-06-28T00:39:56.618Z,64.70
2017-06-28T00:42:24.910Z,65.20
2017-06-28T00:44:55.928Z,65.10
2017-06-28T00:47:29.530Z,65.00
2017-06-28T00:50:11.174Z,64.10
2017-06-28T00:52:52.191Z,64.00
2017-06-28T00:55:26.513Z,64.00
2017-06-28T00:57:54.036Z,63.90
2017-06-28T01:00:32.466Z,64.60
2017-06-28T01:03:05.228Z,64.70
2017-06-28T01:05:34.741Z,65.20
2017-06-28T01:08:12.070Z,65.60
2017-06-28T01:10:44.364Z,65.30
2017-06-28T01:13:19.750Z,65.60
2017-06-28T01:15:58.674Z,65.10
2017-06-28T01:18:38.317Z,65.10
2017-06-28T01:21:06.899Z,65.10
2017-06-28T01:23:33.799Z,64.90
2017-06-28T01:26:15.412Z,65.10
2017-06-28T01:28:48.586Z,65.30
2017-06-28T01:31:24.359Z,65.20
2017-06-28T01:33:52.469Z,65.50
2017-06-28T01:36:20.107Z,65.60
2017-06-28T01:38:57.137Z,65.50
2017-06-28T01:41:24.727Z,65.70
2017-06-28T01:43:58.743Z,65.80
2017-06-28T01:46:38.131Z,65.70
2017-06-28T01:49:05.590Z,65.40
2017-06-28T01:51:39.898Z,65.50
2017-06-28T01:54:19.932Z,65.60
2017-06-28T01:56:47.587Z,66.00
2017-06-28T01:59:27.147Z,66.70
2017-06-28T02:02:06.089Z,66.90
2017-06-28T02:04:48.274Z,66.90
2017-06-28T02:07:24.274Z,67.50
2017-06-28T02:09:51.706Z,66.90
2017-06-28T02:12:19.273Z,67.00
2017-06-28T02:14:46.839Z,66.90
2017-06-28T02:17:13.749Z,66.90
2017-06-28T02:19:41.262Z,67.10
2017-06-28T02:22:09.222Z,67.30
2017-06-28T02:24:37.102Z,67.40
2017-06-28T02:27:07.531Z,67.30
2017-06-28T02:29:36.252Z,66.90
2017-06-28T02:32:04.860Z,67.10
2017-06-28T02:34:33.063Z,67.60
2017-06-28T02:37:00.613Z,67.00
2017-06-28T02:39:29.540Z,66.80
2017-06-28T02:41:56.387Z,66.50
2017-06-28T02:44:23.311Z,66.60
2017-06-28T02:46:50.126Z,66.60
2017-06-28T02:49:17.688Z,67.40
2017-06-28T02:51:45.350Z,67.10
2017-06-28T02:54:14.632Z,67.30
2017-06-28T02:56:43.042Z,67.20
2017-06-28T02:59:11.193Z,67.10
2017-06-28T03:01:40.639Z,66.40
2017-06-28T03:04:09.507Z,66.30
2017-06-28T03:06:37.069Z,66.20
2017-06-28T03:09:05.505Z,65.90
2017-06-28T03:11:32.472Z,65.90
2017-06-28T03:13:59.295Z,65.50
2017-06-28T03:16:26.114Z,65.60
2017-06-28T03:18:53.024Z,65.30
2017-06-28T03:21:20.687Z,65.10
2017-06-28T03:23:48.262Z,65.20
2017-06-28T03:26:15.157Z,65.20
2017-06-28T03:28:41.991Z,65.40
2017-06-28T03:31:08.910Z,65.60
2017-06-28T03:33:35.740Z,66.10
2017-06-28T03:36:02.559Z,65.70
2017-06-28T03:38:29.450Z,65.80
2017-06-28T03:40:56.338Z,66.50
2017-06-28T03:43:23.178Z,66.80
2017-06-28T03:45:49.994Z,68.30
2017-06-28T03:48:16.869Z,69.10
2017-06-28T03:50:43.710Z,68.30
2017-06-28T03:53:10.644Z,69.30
2017-06-28T03:55:37.497Z,69.00
2017-06-28T03:58:04.327Z,68.60
2017-06-28T04:00:31.212Z,68.90
2017-06-28T04:02:58.864Z,69.30
2017-06-28T04:05:26.453Z,70.90
2017-06-28T04:07:53.358Z,70.80
2017-06-28T04:10:20.185Z,70.20
2017-06-28T04:12:47.114Z,70.60
2017-06-28T04:15:14.475Z,71.00
2017-06-28T04:17:41.360Z,71.00
2017-06-28T04:20:08.328Z,71.30
2017-06-28T04:22:35.142Z,71.00
2017-06-28T04:25:01.957Z,71.10
2017-06-28T04:27:28.865Z,71.60
2017-06-28T04:29:55.834Z,72.20
2017-06-28T04:32:22.646Z,72.90
2017-06-28T04:34:50.287Z,72.20
2017-06-28T04:37:17.102Z,72.10
2017-06-28T04:39:43.977Z,73.00
2017-06-28T04:42:11.612Z,72.60
2017-06-28T04:44:38.471Z,72.50
2017-06-28T04:47:05.304Z,73.00
2017-06-28T04:49:32.191Z,72.90
2017-06-28T04:51:59.024Z,72.60
2017-06-28T04:54:26.580Z,72.80
2017-06-28T04:56:54.252Z,72.00
2017-06-28T04:59:21.871Z,72.50
2017-06-28T05:01:48.689Z,72.50
2017-06-28T05:04:15.603Z,70.90
2017-06-28T05:06:42.439Z,71.60
2017-06-28T05:09:10.318Z,71.70
2017-06-28T05:11:38.810Z,71.40
2017-06-28T05:14:06.423Z,70.80
2017-06-28T05:16:33.322Z,70.50
2017-06-28T05:19:01.449Z,70.60
2017-06-28T05:21:30.419Z,71.00
2017-06-28T05:23:58.951Z,71.50
2017-06-28T05:26:31.510Z,70.10
2017-06-28T05:29:01.414Z,70.70
2017-06-28T05:31:29.496Z,70.70
2017-06-28T05:34:08.054Z,71.30
2017-06-28T05:36:46.046Z,70.30
2017-06-28T05:39:22.299Z,70.70
2017-06-28T05:41:49.618Z,70.80
2017-06-28T05:44:16.554Z,69.50
2017-06-28T05:46:43.446Z,69.80
2017-06-28T05:49:11.027Z,70.10
2017-06-28T05:51:37.981Z,70.00
2017-06-28T05:54:04.787Z,69.40
2017-06-28T05:56:31.687Z,70.20
2017-06-28T05:58:58.524Z,69.40
2017-06-28T06:01:25.455Z,69.50
2017-06-28T06:03:53.431Z,69.00
2017-06-28T06:06:20.422Z,69.10
2017-06-28T06:08:47.343Z,69.20
2017-06-28T06:11:14.249Z,69.20
2017-06-28T06:13:41.924Z,69.30
2017-06-28T06:16:08.771Z,69.30
2017-06-28T06:18:35.720Z,69.10
2017-06-28T06:21:02.531Z,69.10
2017-06-28T06:23:30.215Z,69.20
2017-06-28T06:25:57.167Z,69.70
2017-06-28T06:28:24.048Z,69.80
2017-06-28T06:30:50.905Z,69.80
2017-06-28T06:33:17.798Z,69.70
2017-06-28T06:35:44.618Z,69.90
2017-06-28T06:38:11.534Z,69.40
2017-06-28T06:40:38.367Z,69.70
2017-06-28T06:43:05.170Z,70.00
2017-06-28T06:45:32.834Z,70.30
2017-06-28T06:48:00.465Z,70.50
2017-06-28T06:50:27.321Z,70.50
2017-06-28T06:52:54.566Z,70.80
2017-06-28T06:55:22.296Z,70.80
2017-06-28T06:57:49.123Z,71.30
2017-06-28T07:00:17.016Z,71.70
2017-06-28T07:02:43.909Z,71.30
2017-06-28T07:05:13.067Z,71.20
2017-06-28T07:07:40.060Z,71.20
2017-06-28T07:10:06.915Z,71.00
2017-06-28T07:12:33.842Z,70.90
2017-06-28T07:15:00.780Z,71.20
2017-06-28T07:17:34.756Z,71.10
2017-06-28T07:20:02.145Z,71.20
2017-06-28T07:22:35.229Z,71.40
2017-06-28T07:25:02.097Z,71.60
2017-06-28T07:27:32.026Z,72.00
2017-06-28T07:29:58.881Z,72.30
2017-06-28T07:32:27.849Z,72.10
2017-06-28T07:34:54.848Z,72.30
2017-06-28T07:37:22.493Z,72.70
2017-06-28T07:39:49.419Z,72.70
2017-06-28T07:42:17.083Z,72.20
2017-06-28T07:44:43.932Z,72.10
2017-06-28T07:47:13.911Z,72.00
2017-06-28T07:49:47.130Z,71.60
2017-06-28T07:52:14.825Z,72.30
2017-06-28T07:54:41.751Z,72.20
2017-06-28T07:57:08.590Z,72.40
2017-06-28T07:59:35.529Z,72.10
2017-06-28T08:02:05.575Z,72.00
2017-06-28T08:04:32.427Z,71.70
2017-06-28T08:06:59.330Z,71.50
2017-06-28T08:09:28.095Z,71.10
2017-06-28T08:11:56.118Z,71.00
2017-06-28T08:14:23.026Z,70.90
2017-06-28T08:16:50.607Z,71.40
2017-06-28T08:19:21.239Z,71.00
2017-06-28T08:21:48.419Z,70.20
2017-06-28T08:24:19.223Z,70.00
2017-06-28T08:26:51.990Z,69.40
2017-06-28T08:29:25.999Z,69.40
2017-06-28T08:31:59.202Z,69.40
2017-06-28T08:34:28.108Z,69.40
2017-06-28T08:36:54.943Z,70.00
2017-06-28T08:39:21.767Z,69.00
2017-06-28T08:41:48.671Z,68.30
2017-06-28T08:44:15.563Z,68.80
2017-06-28T08:46:53.511Z,68.20
2017-06-28T08:49:31.920Z,68.40
2017-06-28T08:52:10.767Z,67.60
2017-06-28T08:54:52.994Z,68.10
2017-06-28T08:57:32.556Z,67.40
2017-06-28T09:00:14.682Z,67.00
2017-06-28T09:02:43.155Z,66.40
2017-06-28T09:05:10.718Z,67.00
2017-06-28T09:07:38.279Z,67.60
2017-06-28T09:10:05.195Z,67.60
2017-06-28T09:12:32.032Z,65.70
2017-06-28T09:14:58.948Z,66.70
2017-06-28T09:17:25.783Z,65.30
2017-06-28T09:20:08.532Z,65.60
2017-06-28T09:28:25.146Z,62.80
2017-06-28T09:33:36.392Z,61.20
2017-06-28T09:36:03.236Z,60.00
2017-06-28T09:38:30.057Z,60.00
2017-06-28T09:40:56.944Z,59.90
2017-06-28T09:43:24.545Z,59.30
2017-06-28T09:45:51.478Z,59.30
2017-06-28T09:48:18.295Z,59.80
2017-06-28T09:50:45.127Z,60.90
2017-06-28T09:53:12.857Z,61.60
2017-06-28T09:55:40.375Z,60.80
2017-06-28T09:58:07.222Z,60.70
2017-06-28T10:00:34.139Z,61.60
2017-06-28T10:03:00.958Z,62.30
2017-06-28T10:05:27.803Z,62.30
2017-06-28T10:07:54.721Z,62.40
2017-06-28T10:10:22.322Z,63.20
2017-06-28T10:12:49.260Z,65.90
2017-06-28T10:15:16.175Z,65.40
2017-06-28T10:17:43.014Z,66.50
2017-06-28T10:20:12.100Z,67.60
2017-06-28T10:22:39.139Z,68.30
2017-06-28T10:25:07.954Z,68.50
2017-06-28T10:27:34.779Z,67.70
2017-06-28T10:30:01.629Z,66.20
2017-06-28T10:32:28.559Z,66.20
2017-06-28T10:34:55.488Z,66.90
2017-06-28T10:37:23.068Z,63.80
2017-06-28T10:39:49.923Z,63.70
2017-06-28T10:42:16.837Z,61.70
2017-06-28T10:44:44.532Z,62.30
2017-06-28T10:47:13.754Z,62.30
2017-06-28T10:49:40.687Z,62.50
2017-06-28T10:52:07.680Z,60.70
2017-06-28T10:57:17.029Z,59.90
2017-06-28T10:59:44.683Z,60.50
2017-06-28T11:02:22.043Z,60.30
2017-06-28T11:04:48.919Z,60.30
2017-06-28T11:07:21.178Z,61.70
2017-06-28T11:09:56.679Z,61.50
2017-06-28T11:12:27.462Z,61.90
2017-06-28T11:20:23.427Z,62.70
2017-06-28T11:22:50.615Z,62.80
2017-06-28T11:25:17.474Z,60.30
2017-06-28T11:27:45.208Z,56.90
2017-06-28T11:30:12.083Z,56.90
2017-06-28T11:32:39.707Z,57.50
2017-06-28T11:35:06.631Z,56.90
2017-06-28T11:37:33.496Z,57.20
2017-06-28T11:40:01.692Z,60.50
2017-06-28T11:42:29.580Z,60.50
2017-06-28T11:44:57.880Z,60.90
2017-06-28T11:47:26.982Z,59.50
2017-06-28T11:49:58.519Z,59.40
2017-06-28T11:52:25.383Z,55.30
2017-06-28T11:54:53.336Z,55.10
2017-06-28T11:57:21.918Z,54.60
2017-06-28T11:59:50.924Z,53.50
2017-06-28T12:02:19.392Z,52.80
2017-06-28T12:04:46.212Z,52.30
2017-06-28T12:07:13.193Z,53.10
2017-06-28T12:09:48.321Z,54.30
2017-06-28T12:12:15.614Z,53.60
2017-06-28T12:14:42.507Z,55.60
2017-06-28T12:17:09.448Z,57.60
2017-06-28T12:19:36.324Z,58.70
2017-06-28T12:22:03.149Z,58.90
2017-06-28T12:24:31.306Z,57.80
2017-06-28T12:26:58.186Z,57.80
2017-06-28T12:29:25.099Z,57.30
2017-06-28T12:31:53.229Z,54.50
2017-06-28T12:34:20.186Z,54.60
2017-06-28T12:36:47.177Z,53.20
2017-06-28T12:39:33.311Z,52.60
2017-06-28T12:42:05.239Z,52.60
2017-06-28T12:44:33.976Z,53.10
2017-06-28T12:47:01.367Z,53.10
2017-06-28T12:49:29.700Z,53.80
2017-06-28T12:51:56.715Z,53.30
2017-06-28T12:54:24.397Z,53.50
2017-06-28T12:59:49.080Z,53.50
2017-06-28T13:02:15.988Z,52.70
2017-06-28T13:04:44.610Z,50.00
2017-06-28T13:07:14.257Z,47.90
2017-06-28T13:09:41.584Z,46.30
2017-06-28T13:12:09.835Z,46.00
2017-06-28T13:14:36.727Z,45.60
2017-06-28T13:17:06.093Z,46.70
2017-06-28T13:19:33.220Z,45.20
2017-06-28T13:22:02.968Z,46.30
2017-06-28T13:24:30.555Z,46.00
2017-06-28T13:26:58.291Z,46.50
2017-06-28T13:29:25.886Z,45.80
2017-06-28T13:31:52.744Z,45.80
2017-06-28T13:34:19.726Z,44.40
2017-06-28T13:36:46.564Z,44.30
2017-06-28T13:39:13.382Z,44.50
2017-06-28T13:41:40.676Z,44.60
2017-06-28T13:44:08.623Z,45.80
2017-06-28T13:46:35.504Z,45.80
2017-06-28T13:49:04.003Z,45.40
2017-06-28T13:51:30.835Z,45.30
2017-06-28T13:54:00.377Z,44.60
2017-06-28T13:56:27.767Z,44.40
2017-06-28T13:58:54.583Z,44.80
2017-06-28T14:01:21.721Z,44.50
2017-06-28T14:03:49.632Z,44.70
2017-06-28T14:06:16.458Z,45.30
2017-06-28T14:08:43.436Z,43.50
2017-06-28T14:11:16.843Z,43.80
2017-06-28T14:13:48.684Z,44.00
2017-06-28T14:16:19.261Z,43.90
2017-06-28T14:18:46.476Z,43.70
2017-06-28T14:21:14.667Z,44.10
2017-06-28T14:23:46.522Z,44.70
2017-06-28T14:26:14.411Z,43.20
2017-06-28T14:28:49.992Z,43.90
2017-06-28T14:31:21.613Z,43.90
2017-06-28T14:33:58.582Z,41.70
2017-06-28T14:36:45.510Z,41.80
2017-06-28T14:39:25.672Z,41.70
2017-06-28T14:42:07.047Z,41.70
2017-06-28T14:44:49.324Z,42.20
2017-06-28T14:47:17.766Z,42.50
2017-06-28T14:49:44.764Z,42.50
2017-06-28T14:52:11.603Z,42.80
2017-06-28T14:54:38.439Z,42.50
2017-06-28T14:57:05.358Z,43.40
2017-06-28T14:59:32.179Z,43.00
2017-06-28T15:01:59.010Z,43.00
2017-06-28T15:04:25.930Z,43.10
2017-06-28T15:06:52.744Z,43.50
2017-06-28T15:09:19.647Z,43.10
2017-06-28T15:11:46.535Z,42.80
2017-06-28T15:14:13.456Z,42.30
2017-06-28T15:16:40.283Z,41.60
2017-06-28T15:19:07.128Z,40.80
2017-06-28T15:21:34.060Z,40.90
2017-06-28T15:24:01.680Z,42.20
2017-06-28T15:26:28.579Z,42.20
2017-06-28T15:28:55.438Z,41.50
2017-06-28T15:31:22.358Z,41.50
2017-06-28T15:33:50.023Z,42.20
2017-06-28T15:36:17.586Z,41.90
2017-06-28T15:38:45.189Z,41.90
2017-06-28T15:41:12.115Z,41.80
2017-06-28T15:43:38.971Z,41.10
2017-06-28T15:46:05.896Z,40.60
2017-06-28T15:48:32.744Z,40.30
2017-06-28T15:50:59.675Z,40.30
2017-06-28T15:53:27.517Z,39.90
2017-06-28T15:56:05.732Z,39.90
2017-06-28T15:58:33.587Z,41.20
2017-06-28T16:01:00.492Z,41.20
2017-06-28T16:03:27.352Z,40.70
2017-06-28T16:05:58.335Z,39.40
2017-06-28T16:08:28.211Z,39.50
2017-06-28T16:10:55.058Z,39.50
2017-06-28T16:13:21.895Z,39.20
2017-06-28T16:15:48.789Z,39.70
2017-06-28T16:18:27.305Z,39.30
2017-06-28T16:20:55.059Z,39.20
2017-06-28T16:23:32.635Z,38.90
2017-06-28T16:26:14.666Z,40.00
2017-06-28T16:28:49.627Z,40.60
2017-06-28T16:31:16.680Z,40.60
2017-06-28T16:33:43.606Z,40.70
2017-06-28T16:36:20.968Z,41.20
2017-06-28T16:38:48.599Z,41.10
2017-06-28T16:41:15.460Z,41.40
2017-06-28T16:43:42.278Z,41.60
2017-06-28T16:46:19.962Z,41.20
2017-06-28T16:48:47.203Z,41.30
2017-06-28T16:51:14.168Z,41.30
2017-06-28T16:53:41.090Z,41.80
2017-06-28T16:56:18.968Z,41.50
2017-06-28T16:58:49.143Z,42.70
2017-06-28T17:01:18.078Z,42.10
2017-06-28T17:03:45.987Z,42.50
2017-06-28T17:06:13.911Z,42.40
2017-06-28T17:08:40.885Z,42.50
2017-06-28T17:11:11.392Z,42.40
2017-06-28T17:13:38.337Z,42.40
2017-06-28T17:16:05.914Z,41.60
2017-06-28T17:18:33.994Z,42.10
2017-06-28T17:21:02.250Z,41.80
2017-06-28T17:23:29.304Z,41.00
2017-06-28T17:25:56.228Z,40.20
2017-06-28T17:28:23.172Z,40.70
2017-06-28T17:30:51.258Z,40.60
2017-06-28T17:33:19.146Z,40.20
2017-06-28T17:35:47.013Z,40.00
2017-06-28T17:38:14.683Z,40.50
2017-06-28T17:40:43.584Z,40.60
2017-06-28T17:43:10.570Z,40.50
2017-06-28T17:45:37.951Z,40.80
2017-06-28T17:48:04.865Z,40.80
2017-06-28T17:50:31.706Z,40.80
2017-06-28T17:52:59.938Z,41.00
2017-06-28T17:55:27.938Z,41.90
2017-06-28T17:57:54.939Z,41.80
2017-06-28T18:00:21.770Z,42.60
2017-06-28T18:02:48.615Z,42.70
2017-06-28T18:05:17.356Z,43.30
2017-06-28T18:07:45.036Z,44.00
2017-06-28T18:10:11.871Z,44.00
2017-06-28T18:12:38.832Z,43.80
2017-06-28T18:15:05.751Z,44.00
2017-06-28T18:17:32.619Z,44.70
2017-06-28T18:19:59.547Z,44.70
2017-06-28T18:22:26.371Z,45.60
2017-06-28T18:24:53.952Z,44.70
2017-06-28T18:27:21.938Z,44.70
2017-06-28T18:29:48.966Z,44.70
2017-06-28T18:32:18.131Z,44.70
2017-06-28T18:34:47.296Z,44.60
2017-06-28T18:37:16.861Z,44.30
2017-06-28T18:39:44.492Z,44.20
2017-06-28T18:42:11.402Z,44.30
2017-06-28T18:44:38.231Z,44.40
2017-06-28T18:47:05.126Z,44.80
2017-06-28T18:49:31.958Z,44.70
2017-06-28T18:51:58.842Z,44.60
2017-06-28T18:54:28.171Z,44.70
2017-06-28T18:56:59.161Z,44.50
2017-06-28T18:59:26.903Z,44.60
2017-06-28T19:01:54.872Z,45.10
2017-06-28T19:04:21.781Z,46.30
2017-06-28T19:06:49.631Z,45.40
2017-06-28T19:09:24.482Z,45.70
2017-06-28T19:11:51.732Z,45.80
2017-06-28T19:14:20.009Z,46.40
2017-06-28T19:16:49.928Z,47.20
2017-06-28T19:19:16.907Z,46.90
2017-06-28T19:21:43.815Z,46.60
2017-06-28T19:24:12.033Z,46.70
2017-06-28T19:26:38.986Z,47.00
2017-06-28T19:29:07.494Z,47.80
2017-06-28T19:31:37.154Z,47.50
2017-06-28T19:34:04.032Z,47.40
2017-06-28T19:36:30.871Z,47.70
2017-06-28T19:38:57.825Z,48.60
2017-06-28T19:41:24.657Z,48.80
2017-06-28T19:43:51.549Z,48.80
2017-06-28T19:46:18.428Z,49.30
2017-06-28T19:48:45.379Z,50.00
2017-06-28T19:51:12.213Z,51.20
2017-06-28T19:53:39.084Z,52.10
2017-06-28T19:56:06.042Z,52.30
2017-06-28T19:58:32.888Z,53.50
2017-06-28T20:00:59.803Z,53.60
2017-06-28T20:03:26.715Z,54.30
2017-06-28T20:05:53.644Z,54.80
2017-06-28T20:08:21.231Z,54.40
2017-06-28T20:10:48.167Z,54.40
2017-06-28T20:13:15.027Z,55.10
2017-06-28T20:15:41.896Z,54.40
2017-06-28T20:18:08.882Z,54.60
2017-06-28T20:20:37.152Z,55.20
2017-06-28T20:23:06.559Z,55.20
2017-06-28T20:25:34.243Z,56.70
2017-06-28T20:28:01.171Z,56.60
2017-06-28T20:30:31.404Z,57.40
2017-06-28T20:32:58.332Z,57.40
2017-06-28T20:35:25.227Z,57.70
2017-06-28T20:37:54.829Z,58.20
2017-06-28T20:40:21.954Z,58.30
2017-06-28T20:42:49.692Z,58.70
2017-06-28T20:45:19.368Z,58.70
2017-06-28T20:47:46.454Z,58.90
2017-06-28T20:50:13.275Z,59.30
2017-06-28T20:52:41.661Z,59.50
2017-06-28T20:55:10.307Z,59.30
2017-06-28T20:57:37.294Z,59.30
2017-06-28T21:00:04.130Z,59.90
2017-06-28T21:02:31.039Z,59.60
2017-06-28T21:04:57.880Z,60.20
2017-06-28T21:07:24.737Z,60.30
2017-06-28T21:09:51.637Z,60.50
2017-06-28T21:12:19.879Z,60.20
2017-06-28T21:14:46.890Z,60.20
2017-06-28T21:17:13.844Z,60.40
2017-06-28T21:19:40.790Z,60.40
2017-06-28T21:22:07.623Z,60.40
2017-06-28T21:24:35.961Z,60.50
2017-06-28T21:27:03.237Z,60.50
2017-06-28T21:29:30.099Z,60.10
2017-06-28T21:31:57.038Z,60.10
2017-06-28T21:34:23.883Z,60.50
2017-06-28T21:36:51.653Z,60.40
2017-06-28T21:39:19.510Z,60.30
2017-06-28T21:41:46.640Z,60.60
2017-06-28T21:44:13.535Z,61.00
2017-06-28T21:46:40.446Z,61.50
2017-06-28T21:49:08.034Z,61.80
2017-06-28T21:51:34.895Z,61.80
2017-06-28T21:54:01.865Z,61.90
2017-06-28T21:56:28.772Z,62.20
2017-06-28T21:58:56.183Z,62.70
2017-06-28T22:01:23.089Z,61.70
2017-06-28T22:03:50.010Z,62.20
2017-06-28T22:06:17.981Z,62.40
2017-06-28T22:08:45.064Z,62.40
2017-06-28T22:11:15.758Z,62.20
2017-06-28T22:13:46.880Z,62.10
2017-06-28T22:16:15.935Z,62.10
2017-06-28T22:18:55.046Z,61.90
2017-06-28T22:21:22.016Z,62.00
2017-06-28T22:23:48.934Z,61.70
2017-06-28T22:26:15.788Z,61.60
2017-06-28T22:28:42.635Z,61.80
2017-06-28T22:31:23.100Z,62.40
2017-06-28T22:33:50.687Z,62.70
2017-06-28T22:36:17.586Z,62.90
2017-06-28T22:38:44.427Z,63.30
2017-06-28T22:41:12.027Z,63.20
2017-06-28T22:43:38.931Z,63.20
2017-06-28T22:46:06.598Z,63.20
2017-06-28T22:48:34.261Z,63.10
2017-06-28T22:51:01.846Z,62.90
2017-06-28T22:53:28.846Z,62.90
2017-06-28T22:55:56.479Z,63.50
2017-06-28T22:58:23.363Z,62.90
2017-06-28T23:00:51.029Z,63.10
2017-06-28T23:03:18.632Z,63.20
2017-06-28T23:05:45.569Z,63.20
2017-06-28T23:08:12.441Z,63.10
2017-06-28T23:10:39.280Z,63.40
2017-06-28T23:13:06.180Z,63.70
2017-06-28T23:15:33.902Z,63.60
2017-06-28T23:18:00.732Z,63.70
2017-06-28T23:20:27.847Z,64.30
2017-06-28T23:22:54.759Z,64.30
2017-06-28T23:25:21.596Z,64.10
2017-06-28T23:27:48.415Z,64.30
2017-06-28T23:30:15.322Z,64.10
2017-06-28T23:32:42.136Z,64.00
2017-06-28T23:35:09.042Z,63.80
2017-06-28T23:37:35.957Z,63.70
2017-06-28T23:40:02.797Z,63.60
2017-06-28T23:42:29.638Z,63.80
2017-06-28T23:44:57.280Z,64.50
2017-06-28T23:47:24.123Z,64.50
2017-06-28T23:49:50.951Z,64.50
2017-06-28T23:52:17.893Z,64.10
2017-06-28T23:54:44.883Z,64.20
2017-06-28T23:57:11.802Z,63.90
2017-06-28T23:59:38.685Z,64.00
